Hog Shooter, Oklahoma
Current Conditions -  °F | °C
As of 7:53 AM on Sunday 21 Dec 2014 (Local Time) from KBVO Reporting Station
Overcast Overcast  
Wind Chill: 38°   Ceiling: 3200
Heat Index: 42°   Visibility: 9mi
Dew Point: 39°   Wind: 6mph
Humidity: 89%   Direction: 180°S
Pressure: 30.08"   Gusts: NA
Location:  36.7524°N, 96.0733°W
Report Text: KBVO 211353Z AUTO 18005KT 9SM SCT010 OVC032 06/04 A3008 RMK AO2 SLP185 T00560039
Loading
Personal Weather Stations






























Interactive Weather Map New forecast layout! Learn more

10-Day Weather Forecast

Advertisements
Track Severe Weather on mobile